Weather at Sanga Sanga Airport

Public forecast

Using degrees Celsius for public forecast. Weather courtesy of forecast.io.

Closest aviation weather report (METAR) to Sanga Sanga Airport

Closest report is Tawau Airport, 106.6 nm (197.4 km) WSW.

2024/05/20 18:00 (retrieved 22 minutes ago)

WBKW 201800Z VRB03KT 9999 FEW016 26/25 Q1008

Closest aviation forecast (TAF) to Sanga Sanga Airport

Closest forecast is Tawau Airport, 106.6 nm (197.4 km) WSW.

2024/05/20 18:00 (retrieved 22 minutes ago)

TAF WBKW 201700Z 2018/2118 VRB03KT 9999 FEW016 BECMG 2102/2104 15008KT PROB30 TEMPO 2104/2107 5000 RA FEW015 FEW016CB